Time;durP1;ratioP1;P1;durP2;ratioP2;P2;SDS_P1;SDS_P2;PMS_P1;PMS_P2;Temp;Humidity;BMP_temperature;BMP_pressure;BME280_temperature;BME280_humidity;BME280_pressure;Samples;Min_cycle;Max_cycle;Signal;HPM_P1;HPM_P2
2023/12/10 00:00:14;;;;;;;5.57;4.40;;;4.70;99.90;;;;;;5002111;28;20197;-57
2023/12/10 00:02:42;;;;;;;6.93;3.57;;;4.70;99.90;;;;;;5003242;28;20197;-47
2023/12/10 00:05:09;;;;;;;5.93;4.17;;;4.70;99.90;;;;;;5001861;28;20204;-55
2023/12/10 00:07:36;;;;;;;5.40;4.63;;;4.60;99.90;;;;;;4998612;28;21001;-47
2023/12/10 00:10:03;;;;;;;4.07;3.63;;;4.60;99.90;;;;;;4993534;28;20678;-57
2023/12/10 00:12:30;;;;;;;4.60;4.10;;;4.70;99.90;;;;;;4964483;28;20310;-51
2023/12/10 00:14:57;;;;;;;4.57;4.10;;;4.60;99.90;;;;;;5001514;28;20192;-54
2023/12/10 00:17:24;;;;;;;4.37;3.77;;;4.70;99.90;;;;;;4998433;28;20205;-51
2023/12/10 00:19:53;;;;;;;5.30;4.80;;;4.60;99.90;;;;;;5000703;28;20271;-50
2023/12/10 00:22:19;;;;;;;4.60;4.07;;;4.60;99.90;;;;;;4997480;28;20725;-54
2023/12/10 00:24:46;;;;;;;5.67;4.67;;;4.60;99.90;;;;;;5002369;28;20207;-56
2023/12/10 00:27:13;;;;;;;8.93;4.43;;;4.60;99.90;;;;;;4966386;28;20718;-50
2023/12/10 00:29:40;;;;;;;4.97;4.10;;;4.60;99.90;;;;;;4997517;28;20212;-55
2023/12/10 00:32:07;;;;;;;5.30;4.20;;;4.60;99.90;;;;;;4988523;28;20217;-50
2023/12/10 00:34:34;;;;;;;5.03;4.53;;;4.60;99.90;;;;;;4999439;28;20208;-56
2023/12/10 00:37:03;;;;;;;5.03;4.23;;;4.60;99.90;;;;;;4999518;28;20284;-52
2023/12/10 00:39:30;;;;;;;5.10;4.60;;;4.60;99.90;;;;;;4998033;28;20193;-55
2023/12/10 00:41:57;;;;;;;4.67;4.33;;;4.60;99.90;;;;;;4997755;28;20221;-50
2023/12/10 00:44:24;;;;;;;5.60;5.10;;;4.60;99.90;;;;;;4969168;28;20196;-55
2023/12/10 00:46:51;;;;;;;5.60;5.07;;;4.60;99.90;;;;;;4996307;28;20240;-50
2023/12/10 00:49:18;;;;;;;6.43;4.87;;;4.60;99.90;;;;;;4997850;28;20196;-50
2023/12/10 00:51:45;;;;;;;5.77;4.77;;;4.60;99.90;;;;;;4998140;28;20216;-56
2023/12/10 00:54:13;;;;;;;4.67;4.00;;;4.60;99.90;;;;;;4998096;28;20401;-53
2023/12/10 00:56:41;;;;;;;5.67;4.97;;;4.60;99.90;;;;;;5000994;28;20213;-55
2023/12/10 00:59:08;;;;;;;5.57;4.33;;;4.60;99.90;;;;;;4969148;28;20299;-56
2023/12/10 01:01:36;;;;;;;5.97;3.77;;;4.60;99.90;;;;;;5003803;28;20185;-56
2023/12/10 01:04:03;;;;;;;4.90;4.30;;;4.60;99.90;;;;;;4989323;28;20648;-51
2023/12/10 01:06:30;;;;;;;5.77;4.33;;;4.60;99.90;;;;;;4998592;28;20291;-54
2023/12/10 01:08:57;;;;;;;4.87;4.03;;;4.60;99.90;;;;;;4999324;28;20208;-55
2023/12/10 01:11:25;;;;;;;5.77;4.23;;;4.60;99.90;;;;;;4999467;28;20291;-52
2023/12/10 01:13:52;;;;;;;4.43;4.03;;;4.60;99.90;;;;;;4968826;28;20213;-53
2023/12/10 01:16:19;;;;;;;5.07;4.00;;;4.60;99.90;;;;;;4995127;28;20489;-53
2023/12/10 01:18:47;;;;;;;6.63;4.17;;;4.60;99.90;;;;;;4998508;28;20460;-51
2023/12/10 01:21:14;;;;;;;4.37;3.97;;;4.60;99.90;;;;;;5000912;28;20200;-51
2023/12/10 01:23:41;;;;;;;4.70;3.87;;;4.70;99.90;;;;;;4998594;28;20200;-55
2023/12/10 01:26:12;;;;;;;4.53;4.13;;;4.70;99.90;;;;;;5001168;28;20192;-53
2023/12/10 01:28:41;;;;;;;4.00;3.60;;;4.60;99.90;;;;;;4998303;28;20197;-54
2023/12/10 01:31:08;;;;;;;4.70;4.27;;;4.60;99.90;;;;;;4972924;28;20220;-54
2023/12/10 01:33:35;;;;;;;4.67;4.00;;;4.70;99.90;;;;;;4999025;28;20278;-54
2023/12/10 01:36:02;;;;;;;4.30;3.90;;;4.60;99.90;;;;;;5000472;28;20216;-56
2023/12/10 01:38:28;;;;;;;4.87;4.00;;;4.70;99.90;;;;;;4997969;28;20622;-51
2023/12/10 01:40:55;;;;;;;4.33;3.77;;;4.70;99.90;;;;;;5000296;28;20552;-54
2023/12/10 01:43:22;;;;;;;4.03;3.63;;;4.60;99.90;;;;;;4995772;28;20199;-52
2023/12/10 01:45:53;;;;;;;3.90;3.57;;;4.70;99.90;;;;;;4962628;28;20943;-51
2023/12/10 01:48:21;;;;;;;4.70;4.20;;;4.70;99.90;;;;;;4995563;28;20197;-51
2023/12/10 01:50:49;;;;;;;4.37;3.97;;;4.70;99.90;;;;;;4996733;28;20199;-55
2023/12/10 01:53:16;;;;;;;4.00;3.67;;;4.70;99.90;;;;;;4996101;28;20231;-51
2023/12/10 01:55:44;;;;;;;4.83;3.97;;;4.80;99.90;;;;;;4995072;28;20185;-54
2023/12/10 01:58:13;;;;;;;4.20;3.73;;;4.80;99.90;;;;;;5001486;28;20251;-54
2023/12/10 02:00:40;;;;;;;6.60;4.10;;;4.80;99.90;;;;;;4962491;28;20197;-55
2023/12/10 02:03:09;;;;;;;4.80;4.40;;;4.80;99.90;;;;;;5001922;28;20197;-54
2023/12/10 02:05:36;;;;;;;6.80;4.10;;;4.80;99.90;;;;;;4998319;28;20781;-56
2023/12/10 02:08:03;;;;;;;5.30;4.40;;;4.80;99.90;;;;;;5001153;28;20268;-56
2023/12/10 02:10:30;;;;;;;7.50;5.07;;;4.90;99.90;;;;;;4998162;28;20204;-52
2023/12/10 02:12:58;;;;;;;5.07;4.53;;;4.90;99.90;;;;;;5000860;28;20245;-56
2023/12/10 02:15:28;;;;;;;7.13;4.40;;;4.90;99.90;;;;;;4976235;28;20251;-51
2023/12/10 02:17:54;;;;;;;6.20;4.93;;;4.90;99.90;;;;;;4978526;28;20225;-50
2023/12/10 02:20:23;;;;;;;5.43;4.33;;;5.00;99.90;;;;;;4996881;28;20245;-56
2023/12/10 02:22:58;;;;;;;5.47;4.93;;;4.90;99.90;;;;;;4998754;28;20201;-53
2023/12/10 02:25:34;;;;;;;6.77;4.40;;;5.00;99.90;;;;;;4999588;28;20200;-54
2023/12/10 02:28:02;;;;;;;5.37;4.87;;;5.00;99.90;;;;;;4997142;28;20213;-57
2023/12/10 02:30:30;;;;;;;5.97;5.37;;;5.00;99.90;;;;;;5002570;28;20197;-56
2023/12/10 02:32:57;;;;;;;8.70;5.07;;;5.00;99.90;;;;;;4965796;28;20256;-52
2023/12/10 02:35:24;;;;;;;5.63;4.83;;;5.00;99.90;;;;;;5002451;28;20204;-55
2023/12/10 02:37:51;;;;;;;5.47;4.97;;;5.10;99.90;;;;;;4999455;28;20220;-51
2023/12/10 02:40:18;;;;;;;6.33;4.73;;;5.10;99.90;;;;;;5001390;28;20192;-56
2023/12/10 02:42:46;;;;;;;8.50;5.43;;;5.10;99.90;;;;;;4997701;28;20226;-52
2023/12/10 02:45:13;;;;;;;6.53;5.30;;;5.10;99.90;;;;;;5000378;28;20907;-57
2023/12/10 02:47:41;;;;;;;9.30;5.57;;;5.10;99.90;;;;;;4966688;28;20220;-52
2023/12/10 02:50:09;;;;;;;10.03;6.27;;;5.20;99.90;;;;;;4995864;28;20199;-52
2023/12/10 02:52:36;;;;;;;8.37;6.23;;;5.30;99.90;;;;;;5001342;28;20307;-51
2023/12/10 02:55:04;;;;;;;10.90;6.43;;;5.30;99.90;;;;;;4998218;28;20501;-55
2023/12/10 02:57:31;;;;;;;8.90;6.40;;;5.30;99.90;;;;;;5001691;28;20274;-53
2023/12/10 02:59:59;;;;;;;8.67;5.87;;;5.30;99.90;;;;;;4999202;28;20203;-55
2023/12/10 03:02:26;;;;;;;13.27;7.20;;;5.30;99.90;;;;;;4975063;28;20667;-54
2023/12/10 03:04:53;;;;;;;12.23;6.23;;;5.30;99.90;;;;;;4997185;28;20203;-52
2023/12/10 03:07:20;;;;;;;12.07;5.77;;;5.30;99.90;;;;;;5004951;28;20216;-56
2023/12/10 03:09:47;;;;;;;12.70;6.70;;;5.30;99.90;;;;;;4997779;28;20231;-50
2023/12/10 03:12:14;;;;;;;14.27;6.70;;;5.30;99.90;;;;;;5001120;28;20214;-56
2023/12/10 03:14:41;;;;;;;11.30;6.60;;;5.40;99.90;;;;;;5000127;28;20224;-53
2023/12/10 03:17:09;;;;;;;12.33;6.77;;;5.40;99.90;;;;;;4975842;28;21215;-55
2023/12/10 03:19:38;;;;;;;11.10;7.07;;;5.40;99.90;;;;;;5004842;28;20561;-51
2023/12/10 03:22:05;;;;;;;16.67;7.47;;;5.40;99.90;;;;;;5002523;28;20200;-56
2023/12/10 03:24:32;;;;;;;11.53;7.50;;;5.50;99.90;;;;;;5005724;28;20189;-56
2023/12/10 03:26:59;;;;;;;18.17;7.13;;;5.50;99.90;;;;;;5001600;28;20212;-56
2023/12/10 03:29:25;;;;;;;13.97;6.43;;;5.50;99.90;;;;;;5003131;28;20275;-52
2023/12/10 03:31:52;;;;;;;19.00;7.20;;;5.50;99.90;;;;;;4971165;28;20998;-54
2023/12/10 03:34:21;;;;;;;14.73;6.77;;;5.50;99.90;;;;;;4997223;28;20200;-51
2023/12/10 03:36:48;;;;;;;13.60;6.50;;;5.50;99.90;;;;;;4997699;28;20251;-52
2023/12/10 03:39:15;;;;;;;16.87;7.03;;;5.50;99.90;;;;;;4998203;28;20207;-54
2023/12/10 03:41:41;;;;;;;12.07;6.23;;;5.50;99.90;;;;;;4998258;28;20204;-53
2023/12/10 03:44:07;;;;;;;15.47;7.00;;;5.60;99.90;;;;;;4999446;28;20184;-55
2023/12/10 03:46:34;;;;;;;16.60;6.83;;;5.50;99.90;;;;;;5000073;28;20235;-52
2023/12/10 03:49:01;;;;;;;16.60;6.50;;;5.50;99.90;;;;;;4961940;28;20197;-55
2023/12/10 03:51:29;;;;;;;19.77;7.30;;;5.50;99.90;;;;;;5002908;28;20205;-55
2023/12/10 03:53:56;;;;;;;24.43;7.40;;;5.50;99.90;;;;;;5000713;28;20177;-52
2023/12/10 03:56:23;;;;;;;15.10;6.73;;;5.50;99.90;;;;;;5004056;28;20221;-55
2023/12/10 03:58:50;;;;;;;19.67;7.03;;;5.50;99.90;;;;;;5000760;28;20204;-52
2023/12/10 04:01:17;;;;;;;14.40;6.67;;;5.40;99.90;;;;;;5004641;28;20203;-55
2023/12/10 04:03:44;;;;;;;12.87;6.30;;;5.50;99.90;;;;;;4972208;28;20224;-52
2023/12/10 04:06:11;;;;;;;16.87;6.63;;;5.40;99.90;;;;;;5003788;28;20220;-54
2023/12/10 04:08:40;;;;;;;21.07;7.10;;;5.40;99.90;;;;;;4999837;28;20568;-52
2023/12/10 04:11:07;;;;;;;17.30;7.10;;;5.40;99.90;;;;;;4996485;28;20236;-54
2023/12/10 04:13:34;;;;;;;16.27;6.93;;;5.40;99.90;;;;;;5001270;28;20300;-52
2023/12/10 04:16:01;;;;;;;18.10;7.27;;;5.40;99.90;;;;;;4997003;28;20181;-56
2023/12/10 04:18:28;;;;;;;15.97;7.23;;;5.40;99.90;;;;;;5004828;28;20570;-55
2023/12/10 04:20:55;;;;;;;17.33;6.07;;;5.40;99.90;;;;;;4968199;28;20908;-52
2023/12/10 04:23:22;;;;;;;14.00;6.53;;;5.40;99.90;;;;;;5003667;28;20262;-55
2023/12/10 04:25:50;;;;;;;18.13;6.63;;;5.30;99.90;;;;;;5001072;28;20237;-53
2023/12/10 04:28:17;;;;;;;15.70;6.57;;;5.30;99.90;;;;;;4989964;28;20214;-51
2023/12/10 04:30:44;;;;;;;24.67;6.30;;;5.30;99.90;;;;;;4997910;28;20184;-51
2023/12/10 04:33:11;;;;;;;17.60;7.03;;;5.30;99.90;;;;;;5002736;28;20224;-53
2023/12/10 04:35:38;;;;;;;18.37;6.03;;;5.30;99.90;;;;;;4969921;28;20887;-51
2023/12/10 04:38:05;;;;;;;16.20;5.80;;;5.10;99.90;;;;;;5002769;28;20328;-49
2023/12/10 04:40:32;;;;;;;21.43;6.47;;;5.20;99.90;;;;;;4997930;28;20944;-52
2023/12/10 04:43:00;;;;;;;13.10;5.90;;;5.10;99.90;;;;;;5003118;28;20224;-52
2023/12/10 04:45:27;;;;;;;14.77;4.60;;;5.10;99.90;;;;;;5000279;28;20193;-53
2023/12/10 04:47:54;;;;;;;24.03;5.50;;;5.10;99.90;;;;;;5003293;28;20299;-50
2023/12/10 04:50:22;;;;;;;25.83;4.60;;;5.20;99.90;;;;;;4984737;28;20193;-52
2023/12/10 04:52:48;;;;;;;25.23;4.47;;;5.30;99.90;;;;;;4981582;28;20308;-54
2023/12/10 04:55:15;;;;;;;28.23;5.07;;;5.40;99.90;;;;;;5002870;28;20200;-53
2023/12/10 04:57:42;;;;;;;26.17;4.30;;;5.60;99.90;;;;;;5000820;28;20212;-54
2023/12/10 05:00:12;;;;;;;20.43;4.30;;;5.70;99.90;;;;;;4997577;28;20196;-54
2023/12/10 05:02:39;;;;;;;27.47;4.77;;;5.80;99.90;;;;;;4991250;28;21631;-54
2023/12/10 05:05:07;;;;;;;29.57;5.37;;;5.90;99.90;;;;;;4996995;28;20201;-54
2023/12/10 05:07:34;;;;;;;20.53;3.87;;;6.00;99.90;;;;;;4965106;28;20216;-50
2023/12/10 05:10:01;;;;;;;22.67;4.30;;;6.00;99.90;;;;;;4992299;28;20924;-49
2023/12/10 05:12:28;;;;;;;31.17;4.50;;;6.20;99.90;;;;;;5000933;28;20223;-53
2023/12/10 05:14:56;;;;;;;26.90;4.03;;;6.30;99.90;;;;;;4994142;28;20746;-53
2023/12/10 05:17:24;;;;;;;22.87;4.07;;;6.40;99.90;;;;;;5001270;28;20710;-53
2023/12/10 05:19:51;;;;;;;31.63;3.77;;;6.40;99.90;;;;;;4997581;28;20630;-53
2023/12/10 05:22:20;;;;;;;21.77;4.03;;;6.40;99.90;;;;;;4974039;28;20213;-53
2023/12/10 05:24:47;;;;;;;22.23;3.70;;;6.50;99.90;;;;;;5000679;28;20204;-53
2023/12/10 05:27:14;;;;;;;17.27;3.53;;;6.40;99.90;;;;;;5001927;28;20303;-50
2023/12/10 05:29:41;;;;;;;17.20;3.70;;;6.40;99.90;;;;;;5002269;28;20189;-54
2023/12/10 05:32:08;;;;;;;25.90;3.97;;;6.50;99.90;;;;;;4990745;28;20193;-53
2023/12/10 05:34:36;;;;;;;19.43;4.00;;;6.50;99.90;;;;;;5003112;28;20663;-51
2023/12/10 05:37:03;;;;;;;21.57;3.63;;;6.50;99.90;;;;;;4967998;28;20220;-54
2023/12/10 05:39:30;;;;;;;22.87;4.17;;;6.50;99.90;;;;;;4998762;28;20197;-51
2023/12/10 05:41:57;;;;;;;28.53;4.37;;;6.50;99.90;;;;;;4999252;28;20189;-53
2023/12/10 05:44:24;;;;;;;23.20;3.87;;;6.50;99.90;;;;;;5002852;28;20555;-52
2023/12/10 05:46:51;;;;;;;26.53;3.70;;;6.60;99.90;;;;;;4999293;28;20725;-55
2023/12/10 05:49:19;;;;;;;15.33;3.70;;;6.60;99.90;;;;;;5002978;28;20203;-50
2023/12/10 05:51:47;;;;;;;17.50;3.53;;;6.60;99.90;;;;;;4999613;28;20207;-54
2023/12/10 05:54:14;;;;;;;21.37;3.80;;;6.60;99.90;;;;;;4970603;28;20770;-51
2023/12/10 05:56:41;;;;;;;24.43;4.80;;;6.70;99.90;;;;;;5001185;28;20209;-54
2023/12/10 05:59:08;;;;;;;24.97;4.50;;;6.70;99.90;;;;;;4998486;28;20197;-52
2023/12/10 06:01:35;;;;;;;22.30;3.87;;;6.70;99.90;;;;;;5000481;28;20215;-55
2023/12/10 06:04:02;;;;;;;17.50;4.23;;;6.70;99.90;;;;;;4995943;28;20196;-48
2023/12/10 06:06:29;;;;;;;18.97;3.67;;;6.70;99.90;;;;;;4998989;28;20878;-49
2023/12/10 06:08:57;;;;;;;16.90;4.27;;;6.70;99.90;;;;;;4958764;28;20208;-51
2023/12/10 06:11:24;;;;;;;26.83;3.93;;;6.70;99.90;;;;;;5002145;28;20201;-51
2023/12/10 06:13:51;;;;;;;23.70;3.93;;;6.80;99.90;;;;;;4997602;28;20215;-55
2023/12/10 06:16:18;;;;;;;22.17;3.53;;;6.80;99.90;;;;;;5000796;28;20227;-51
2023/12/10 06:18:46;;;;;;;19.37;2.87;;;6.80;99.90;;;;;;4995629;28;20573;-55
2023/12/10 06:21:13;;;;;;;16.20;3.57;;;6.80;99.90;;;;;;4999359;28;20193;-52
2023/12/10 06:23:40;;;;;;;22.53;3.87;;;6.80;99.90;;;;;;4990960;28;20298;-55
2023/12/10 06:26:08;;;;;;;21.43;3.17;;;6.80;99.90;;;;;;4971033;28;20211;-50
2023/12/10 06:28:35;;;;;;;23.23;3.53;;;6.80;99.90;;;;;;4994755;28;20199;-54
2023/12/10 06:31:03;;;;;;;20.70;3.53;;;6.90;99.90;;;;;;4995694;28;20216;-51
2023/12/10 06:33:30;;;;;;;17.63;3.70;;;6.90;99.90;;;;;;5003118;28;20212;-53
2023/12/10 06:35:57;;;;;;;10.33;2.70;;;6.90;99.90;;;;;;5001798;28;20203;-53
2023/12/10 06:38:24;;;;;;;17.50;2.83;;;6.90;99.90;;;;;;5008900;28;20207;-53
2023/12/10 06:40:51;;;;;;;10.47;3.03;;;6.90;99.90;;;;;;4966477;28;20209;-55
2023/12/10 06:43:21;;;;;;;19.67;3.50;;;6.90;99.90;;;;;;5005791;28;20196;-51
2023/12/10 06:45:48;;;;;;;18.20;3.23;;;6.90;99.90;;;;;;5001908;28;20196;-53
2023/12/10 06:48:15;;;;;;;21.67;3.47;;;6.90;99.90;;;;;;4987093;28;20926;-52
2023/12/10 06:50:43;;;;;;;16.67;3.23;;;6.90;99.90;;;;;;4992851;28;20200;-49
2023/12/10 06:53:10;;;;;;;19.67;3.30;;;6.90;99.90;;;;;;5000057;28;20219;-52
2023/12/10 06:55:37;;;;;;;17.00;2.87;;;6.90;99.90;;;;;;4960289;28;20266;-52
2023/12/10 06:58:04;;;;;;;19.63;4.60;;;6.90;99.90;;;;;;5004785;28;20220;-53
2023/12/10 07:00:32;;;;;;;15.93;3.50;;;6.90;99.90;;;;;;5001357;28;20203;-51
2023/12/10 07:02:59;;;;;;;14.37;2.93;;;6.90;99.90;;;;;;5002165;28;20651;-52
2023/12/10 07:05:26;;;;;;;14.67;3.67;;;6.90;99.90;;;;;;4998591;28;20200;-52
2023/12/10 07:07:53;;;;;;;21.00;3.23;;;6.90;99.90;;;;;;5002708;28;20238;-50
2023/12/10 07:10:20;;;;;;;14.77;3.50;;;6.90;99.90;;;;;;4961917;28;20299;-54
2023/12/10 07:12:47;;;;;;;14.97;3.17;;;6.90;99.90;;;;;;4993192;28;20272;-52
2023/12/10 07:15:14;;;;;;;12.83;3.40;;;7.00;99.90;;;;;;5000759;28;20235;-55
2023/12/10 07:17:42;;;;;;;10.97;2.93;;;6.90;99.90;;;;;;4999922;28;20283;-53
2023/12/10 07:20:12;;;;;;;21.97;3.73;;;6.90;99.90;;;;;;5005748;28;20202;-52
2023/12/10 07:22:39;;;;;;;12.13;2.97;;;7.00;99.90;;;;;;5003033;28;20188;-50
2023/12/10 07:25:06;;;;;;;12.73;2.70;;;6.90;99.90;;;;;;5000282;28;20208;-55
2023/12/10 07:27:33;;;;;;;15.90;2.80;;;7.00;99.90;;;;;;4970860;28;20220;-51
2023/12/10 07:30:00;;;;;;;12.23;2.37;;;6.90;99.90;;;;;;5002727;28;20251;-53
2023/12/10 07:32:27;;;;;;;17.77;2.77;;;6.90;99.90;;;;;;5001335;28;20196;-52
2023/12/10 07:34:57;;;;;;;11.83;2.53;;;6.90;99.90;;;;;;5000468;28;20222;-53
2023/12/10 07:37:24;;;;;;;9.93;2.10;;;6.90;99.90;;;;;;4999299;28;20221;-51
2023/12/10 07:39:51;;;;;;;9.90;2.50;;;6.90;99.90;;;;;;4993449;28;20236;-54
2023/12/10 07:42:18;;;;;;;17.67;2.73;;;6.90;99.90;;;;;;4971319;28;20205;-55
2023/12/10 07:44:45;;;;;;;11.73;2.60;;;6.90;99.90;;;;;;5005302;28;20214;-54
2023/12/10 07:47:12;;;;;;;14.17;2.47;;;6.90;99.90;;;;;;4985276;28;21982;-50
2023/12/10 07:49:39;;;;;;;10.10;2.47;;;6.90;99.90;;;;;;4999388;28;21321;-54
2023/12/10 07:52:08;;;;;;;13.80;2.73;;;6.90;99.90;;;;;;4988127;28;20282;-51
2023/12/10 07:54:35;;;;;;;13.10;2.47;;;6.90;99.90;;;;;;4993738;28;20209;-50
2023/12/10 07:57:01;;;;;;;18.30;3.83;;;6.90;99.90;;;;;;4960878;28;20220;-51
2023/12/10 07:59:28;;;;;;;9.77;2.77;;;6.90;99.90;;;;;;4997431;28;20207;-53
2023/12/10 08:01:55;;;;;;;13.83;2.77;;;6.90;99.90;;;;;;4999460;28;20193;-56
2023/12/10 08:04:22;;;;;;;10.77;2.80;;;6.90;99.90;;;;;;4996722;28;20193;-52
2023/12/10 08:06:49;;;;;;;15.57;2.47;;;6.90;99.90;;;;;;4993684;28;20225;-54
2023/12/10 08:09:18;;;;;;;13.57;2.83;;;6.90;99.90;;;;;;4980938;28;20194;-50
2023/12/10 08:11:45;;;;;;;10.80;3.03;;;6.90;99.90;;;;;;4965406;28;20201;-55
2023/12/10 08:14:12;;;;;;;10.50;2.47;;;6.90;99.90;;;;;;4994616;28;20231;-54
2023/12/10 08:16:39;;;;;;;9.83;2.57;;;6.90;99.90;;;;;;4997403;28;20658;-54
2023/12/10 08:19:06;;;;;;;11.23;2.63;;;7.00;99.90;;;;;;4984511;28;20201;-49
2023/12/10 08:21:33;;;;;;;12.83;2.80;;;6.90;99.90;;;;;;5003458;28;20659;-54
2023/12/10 08:24:00;;;;;;;8.37;1.87;;;6.90;99.90;;;;;;4980674;28;20204;-52
2023/12/10 08:26:28;;;;;;;14.73;2.77;;;7.00;99.90;;;;;;4993398;28;20582;-54
2023/12/10 08:28:55;;;;;;;7.67;2.40;;;7.00;99.90;;;;;;4968066;28;20197;-52
2023/12/10 08:31:22;;;;;;;9.70;2.30;;;7.00;99.90;;;;;;5000823;28;20197;-49
2023/12/10 08:33:49;;;;;;;11.60;2.57;;;7.00;99.90;;;;;;4998809;28;20209;-53
2023/12/10 08:36:16;;;;;;;7.50;1.83;;;7.00;99.90;;;;;;5001101;28;20225;-49
2023/12/10 08:38:43;;;;;;;10.00;2.60;;;7.00;99.90;;;;;;4986135;28;20204;-55
2023/12/10 08:41:10;;;;;;;9.10;2.40;;;7.00;99.90;;;;;;4999627;28;20204;-51
2023/12/10 08:43:38;;;;;;;6.60;2.27;;;7.00;99.90;;;;;;4975732;28;20197;-54
2023/12/10 08:46:05;;;;;;;11.67;2.37;;;7.00;99.90;;;;;;4981104;28;20192;-49
2023/12/10 08:48:32;;;;;;;7.40;1.83;;;7.00;99.90;;;;;;4991704;28;20271;-55
2023/12/10 08:50:59;;;;;;;14.77;2.30;;;7.00;99.90;;;;;;4999977;28;20197;-50
2023/12/10 08:53:26;;;;;;;11.97;2.20;;;7.00;99.90;;;;;;5000837;28;20196;-48
2023/12/10 08:55:54;;;;;;;12.00;2.50;;;7.00;99.90;;;;;;4989146;28;20272;-51
2023/12/10 08:58:21;;;;;;;9.53;2.60;;;7.00;99.90;;;;;;4992476;28;20558;-51
2023/12/10 09:00:50;;;;;;;9.93;2.83;;;7.00;99.90;;;;;;4962722;28;20251;-52
2023/12/10 09:03:17;;;;;;;8.83;2.70;;;7.00;99.90;;;;;;4995570;28;20234;-51
2023/12/10 09:05:44;;;;;;;7.77;2.53;;;7.00;99.90;;;;;;4989963;28;20201;-52
2023/12/10 09:08:11;;;;;;;6.77;2.33;;;7.00;99.90;;;;;;4994725;28;20216;-51
2023/12/10 09:10:38;;;;;;;9.73;2.67;;;7.00;99.90;;;;;;4985161;28;20237;-56
2023/12/10 09:13:05;;;;;;;15.90;3.00;;;7.00;99.90;;;;;;4990272;28;20246;-52
2023/12/10 09:15:32;;;;;;;9.67;2.77;;;7.00;99.90;;;;;;4992906;28;20212;-53
2023/12/10 09:18:00;;;;;;;10.63;2.67;;;7.00;99.90;;;;;;4978359;28;20236;-49
2023/12/10 09:20:27;;;;;;;6.33;2.27;;;7.00;99.90;;;;;;4998560;28;20204;-48
2023/12/10 09:22:54;;;;;;;8.23;3.17;;;7.00;99.90;;;;;;4999129;28;20188;-48
2023/12/10 09:25:21;;;;;;;8.80;2.40;;;7.00;99.90;;;;;;4991950;28;20200;-49
2023/12/10 09:27:48;;;;;;;7.27;2.60;;;7.00;99.90;;;;;;4977116;28;20224;-55
2023/12/10 09:30:15;;;;;;;7.53;3.00;;;7.00;99.90;;;;;;5000089;28;20193;-52
2023/12/10 09:32:42;;;;;;;6.10;2.90;;;7.00;99.90;;;;;;4966322;28;20212;-49
2023/12/10 09:35:10;;;;;;;16.10;3.50;;;7.00;99.90;;;;;;4992102;28;20574;-55
2023/12/10 09:37:38;;;;;;;9.13;3.33;;;7.00;99.90;;;;;;4995595;28;20279;-50
2023/12/10 09:40:06;;;;;;;6.70;3.20;;;7.00;99.90;;;;;;4988555;28;20201;-55
2023/12/10 09:42:33;;;;;;;8.40;3.30;;;7.00;99.90;;;;;;4991939;28;20197;-51
2023/12/10 09:45:00;;;;;;;9.83;3.27;;;7.00;99.90;;;;;;4986213;28;20207;-53
2023/12/10 09:47:28;;;;;;;11.47;3.63;;;7.00;99.90;;;;;;4970672;28;20239;-49
2023/12/10 09:49:57;;;;;;;6.87;3.70;;;7.10;99.90;;;;;;4999722;28;20675;-52
2023/12/10 09:52:25;;;;;;;9.97;3.27;;;7.00;99.90;;;;;;4996924;28;20280;-49
2023/12/10 09:54:53;;;;;;;10.60;3.47;;;7.10;99.90;;;;;;4993992;28;20639;-53
2023/12/10 09:57:21;;;;;;;11.47;3.90;;;7.10;99.90;;;;;;4982526;28;20220;-53
2023/12/10 09:59:48;;;;;;;9.17;3.73;;;7.10;99.90;;;;;;4993135;28;20200;-50
2023/12/10 10:02:15;;;;;;;9.47;3.47;;;7.10;99.90;;;;;;4961035;28;21430;-49
2023/12/10 10:04:43;;;;;;;9.13;3.20;;;7.10;99.90;;;;;;4972137;28;20228;-52
2023/12/10 10:07:10;;;;;;;7.87;3.67;;;7.10;99.90;;;;;;4994122;28;20295;-55
2023/12/10 10:09:39;;;;;;;6.57;3.47;;;7.10;99.90;;;;;;4983696;28;20201;-55
2023/12/10 10:12:07;;;;;;;4.57;3.37;;;7.20;99.90;;;;;;4972172;28;21885;-49
2023/12/10 10:14:34;;;;;;;13.73;3.47;;;7.10;99.90;;;;;;4985800;28;20319;-51
2023/12/10 10:17:01;;;;;;;7.30;3.17;;;7.20;99.90;;;;;;4987869;28;20224;-49
2023/12/10 10:19:28;;;;;;;8.00;3.23;;;7.20;99.90;;;;;;4965943;28;20216;-50
2023/12/10 10:21:56;;;;;;;7.10;2.90;;;7.20;99.90;;;;;;4993776;28;20288;-55
2023/12/10 10:24:23;;;;;;;8.23;3.50;;;7.20;99.90;;;;;;4988068;28;20562;-53
2023/12/10 10:26:54;;;;;;;6.97;3.23;;;7.30;99.90;;;;;;4984737;28;20240;-54
2023/12/10 10:29:25;;;;;;;6.73;2.93;;;7.30;99.90;;;;;;5002591;28;20280;-49
2023/12/10 10:31:57;;;;;;;3.50;2.37;;;7.40;99.90;;;;;;4974357;28;20227;-54
2023/12/10 10:34:24;;;;;;;5.47;3.00;;;7.40;99.90;;;;;;4967588;28;20836;-50
2023/12/10 10:36:52;;;;;;;9.50;3.20;;;7.40;99.90;;;;;;4993623;28;20217;-54
2023/12/10 10:39:19;;;;;;;7.67;2.83;;;7.40;99.90;;;;;;4991233;28;20204;-52
2023/12/10 10:41:46;;;;;;;8.77;3.20;;;7.40;99.90;;;;;;4990823;28;20209;-54
2023/12/10 10:44:14;;;;;;;8.77;2.53;;;7.40;99.90;;;;;;4985282;28;20195;-53
2023/12/10 10:46:42;;;;;;;9.43;2.57;;;7.40;99.90;;;;;;4988716;28;20217;-55
2023/12/10 10:49:09;;;;;;;7.80;1.87;;;7.50;99.90;;;;;;4962165;28;21460;-55
2023/12/10 10:51:36;;;;;;;6.57;2.23;;;7.50;99.90;;;;;;4995264;28;20197;-50
2023/12/10 10:54:04;;;;;;;5.60;1.80;;;7.60;99.90;;;;;;4992433;28;20272;-50
2023/12/10 10:56:32;;;;;;;4.57;2.33;;;7.50;99.90;;;;;;4995777;28;20216;-51
2023/12/10 10:58:59;;;;;;;2.87;2.00;;;7.50;99.90;;;;;;4978915;28;20207;-52
2023/12/10 11:01:42;;;;;;;5.10;2.03;;;7.60;99.90;;;;;;4977311;28;20214;-53
2023/12/10 11:04:12;;;;;;;3.97;2.23;;;7.60;99.90;;;;;;4989234;28;20208;-53
2023/12/10 11:06:40;;;;;;;2.70;2.00;;;7.60;99.90;;;;;;4976300;28;20232;-49
2023/12/10 11:09:07;;;;;;;4.53;2.33;;;7.60;99.90;;;;;;4998511;28;20743;-50
2023/12/10 11:11:40;;;;;;;3.83;2.20;;;7.60;99.90;;;;;;4984652;28;21831;-49
2023/12/10 11:14:20;;;;;;;2.40;2.20;;;7.70;99.90;;;;;;4988510;28;20205;-53
2023/12/10 11:16:51;;;;;;;4.67;2.30;;;7.70;99.90;;;;;;4985685;28;20224;-53
2023/12/10 11:19:21;;;;;;;2.77;1.80;;;7.70;99.90;;;;;;4998116;28;20200;-52
2023/12/10 11:21:49;;;;;;;6.40;2.30;;;7.70;99.90;;;;;;4970890;28;20220;-57
2023/12/10 11:24:16;;;;;;;3.80;2.10;;;7.80;99.90;;;;;;5002630;28;20201;-50
2023/12/10 11:26:43;;;;;;;5.07;2.10;;;7.80;99.90;;;;;;4994251;28;20212;-55
2023/12/10 11:29:10;;;;;;;3.13;2.33;;;7.80;99.90;;;;;;4997669;28;20202;-49
2023/12/10 11:31:37;;;;;;;7.00;2.97;;;7.80;99.90;;;;;;4993798;28;20196;-55
2023/12/10 11:34:06;;;;;;;7.23;2.40;;;7.90;99.90;;;;;;4988278;28;20197;-51
2023/12/10 11:36:33;;;;;;;6.97;2.70;;;7.90;99.90;;;;;;4973170;28;20220;-54
2023/12/10 11:38:59;;;;;;;5.73;2.77;;;8.00;99.90;;;;;;4996513;28;20197;-51
2023/12/10 11:41:27;;;;;;;7.67;2.80;;;8.00;99.90;;;;;;4997523;28;20664;-52
2023/12/10 11:43:54;;;;;;;3.37;2.70;;;8.00;99.90;;;;;;4985810;28;20204;-49
2023/12/10 11:46:21;;;;;;;9.27;3.07;;;8.10;99.90;;;;;;4993246;28;20286;-55
2023/12/10 11:48:48;;;;;;;3.93;2.80;;;8.10;99.90;;;;;;4990831;28;20204;-55
2023/12/10 11:51:18;;;;;;;9.57;3.13;;;8.00;99.90;;;;;;4972102;28;20235;-51
2023/12/10 11:53:46;;;;;;;7.00;3.27;;;8.10;99.90;;;;;;5002696;28;20197;-56
2023/12/10 11:56:14;;;;;;;7.93;3.33;;;8.10;99.90;;;;;;5002234;28;20737;-53
2023/12/10 11:58:45;;;;;;;4.83;2.93;;;8.10;99.90;;;;;;4995326;28;20282;-54
2023/12/10 12:01:12;;;;;;;7.70;3.00;;;8.20;99.90;;;;;;4986733;28;20301;-49
2023/12/10 12:03:39;;;;;;;7.30;3.37;;;8.20;99.90;;;;;;4993320;28;20220;-55
2023/12/10 12:06:07;;;;;;;10.70;3.10;;;8.20;99.90;;;;;;4993258;28;20832;-49
2023/12/10 12:08:35;;;;;;;8.87;3.47;;;8.20;99.90;;;;;;4967455;28;20250;-55
2023/12/10 12:11:02;;;;;;;7.37;3.40;;;8.20;99.90;;;;;;4994164;28;20201;-53
2023/12/10 12:13:30;;;;;;;6.13;3.03;;;8.20;99.90;;;;;;4999809;28;20544;-53
2023/12/10 12:15:57;;;;;;;6.43;3.17;;;8.20;99.90;;;;;;4989500;28;20216;-52
2023/12/10 12:18:26;;;;;;;7.90;3.30;;;8.30;99.90;;;;;;4993572;28;20663;-49
2023/12/10 12:20:53;;;;;;;5.97;2.87;;;8.30;99.90;;;;;;4984272;28;20189;-52
2023/12/10 12:23:20;;;;;;;7.20;3.77;;;8.30;99.90;;;;;;4968845;28;20211;-52
2023/12/10 12:25:48;;;;;;;6.23;3.07;;;8.30;99.90;;;;;;4995014;28;20286;-55
2023/12/10 12:28:15;;;;;;;5.87;3.13;;;8.30;99.90;;;;;;4997632;28;20244;-54
2023/12/10 12:30:42;;;;;;;9.10;3.53;;;8.30;99.90;;;;;;4990346;28;20190;-55
2023/12/10 12:33:10;;;;;;;5.50;3.13;;;8.30;99.90;;;;;;4989785;28;20216;-54
2023/12/10 12:35:37;;;;;;;7.97;3.53;;;8.30;99.90;;;;;;4996336;28;20291;-55
2023/12/10 12:38:04;;;;;;;3.70;3.30;;;8.30;99.90;;;;;;4963229;28;20224;-54
2023/12/10 12:40:31;;;;;;;7.73;3.40;;;8.30;99.90;;;;;;4996476;28;20560;-56
2023/12/10 12:42:59;;;;;;;9.70;3.20;;;8.30;99.90;;;;;;4995620;28;20200;-54
2023/12/10 12:45:26;;;;;;;3.53;2.27;;;8.30;99.90;;;;;;4996290;28;20194;-53
2023/12/10 12:47:53;;;;;;;4.57;1.50;;;8.30;99.90;;;;;;4977295;28;20209;-51
2023/12/10 12:50:20;;;;;;;4.47;1.87;;;8.30;99.90;;;;;;5000854;28;20243;-52
2023/12/10 12:52:48;;;;;;;6.50;2.00;;;8.30;99.90;;;;;;4962094;28;20200;-56